Torrington, WY (82240)

4:05 PM MST on December 09, 2016 (GMT -0700)
Torrington Main St Mkt | | Change Station

Elev 4094 ft 42.06 °N, 104.18 °W | Updated 5 minutes ago

Clear
Clear
27.4 °F
Feels Like 27 °F
N
0.0
Wind Variable Wind from NNE
Gusts 1.0 mph

Today
High -- | Low -- °F
--% Chance of Precip.
Yesterday
High -- | Low -- °F
Precip. -- in
Pressure 30.32 in
Visibility 10.0 miles
Clouds Clear
Windchill 27 °F
Dew Point 13 °F
Humidity 54%
Rainfall 0.00 in
Snow Depth Not available.
7:13 AM 4:25 PM
Waxing Gibbous, 78% visible
METAR KTOR 092253Z AUTO 00000KT 10SM CLR M04/M12 A3016 RMK AO2 SLP267 T10441122
Pressure 30.32 in
Visibility 10.0 miles
Clouds Clear
Windchill 27 °F
Dew Point 13 °F
Humidity 54%
Rainfall 0.00 in
Snow Depth Not available.
7:13 AM 4:25 PM
Waxing Gibbous, 78% visible
METAR KTOR 092253Z AUTO 00000KT 10SM CLR M04/M12 A3016 RMK AO2 SLP267 T10441122

10-Day Weather Forecast

Almanac

Astronomy

Dec. 09, 2016 Rise Set
Actual Time
Civil Twilight
Nautical Twilight
Astronomical Twilight
Moon
Length of Visible Light
Length of Day
Tomorrow will be .
, % of the Moon is Illuminated

Today's Extremes

State Highs State Lows

Community

WunderPhotos

Upload Photos

1,956,535 photos uploaded!

WunderBlog® & News

Nearby

Air Quality

  Air Quality AQ Index Pollutant
Not available.

Snow Depth

Station Depth Elevation

Earthquake Activity

City Distance Mag. Time & Date
Minimum magnitude displayed is 2.5.

Coastal Water Temperatures

Place Temperature

Stations

Nearby Weather Stations

Station Location Temp. Windchill Dew Point Humidity Wind Precip. Elev Updated Type
                   

Watches & Warnings

There are currently no watches in effect.